createdAt,value
2022-09-30T00:03:59.275Z,20.13
2022-09-30T00:09:03.588Z,20.45
2022-09-30T00:14:13.455Z,20.30
2022-09-30T00:19:18.793Z,20.00
2022-09-30T00:24:21.385Z,20.09
2022-09-30T00:29:24.733Z,19.84
2022-09-30T00:34:27.225Z,19.58
2022-09-30T00:39:37.663Z,19.84
2022-09-30T00:44:52.088Z,19.27
2022-09-30T00:49:58.657Z,19.39
2022-09-30T00:55:08.327Z,19.45
2022-09-30T01:00:11.012Z,19.36
2022-09-30T01:05:13.737Z,19.52
2022-09-30T01:10:16.343Z,19.53
2022-09-30T01:15:24.683Z,19.77
2022-09-30T01:21:13.541Z,19.82
2022-09-30T01:26:49.447Z,19.80
2022-09-30T01:32:23.391Z,19.68
2022-09-30T01:37:59.910Z,19.73
2022-09-30T01:43:17.793Z,19.36
2022-09-30T01:48:56.571Z,19.44
2022-09-30T01:54:10.058Z,19.21
2022-09-30T01:59:25.600Z,19.20
2022-09-30T02:04:43.565Z,19.26
2022-09-30T02:10:01.793Z,19.40
2022-09-30T02:15:19.929Z,19.41
2022-09-30T02:20:35.778Z,19.56
2022-09-30T02:26:30.004Z,19.46
2022-09-30T02:31:35.929Z,19.36
2022-09-30T02:36:44.992Z,19.29
2022-09-30T02:41:57.823Z,19.21
2022-09-30T02:47:15.670Z,19.15
2022-09-30T02:53:05.288Z,19.06
2022-09-30T02:58:20.058Z,19.32
2022-09-30T03:03:28.234Z,19.72
2022-09-30T03:08:30.873Z,19.45
2022-09-30T03:13:38.254Z,19.44
2022-09-30T03:19:24.758Z,19.32
2022-09-30T03:24:50.338Z,19.63
2022-09-30T03:30:09.731Z,19.38
2022-09-30T03:35:15.059Z,19.70
2022-09-30T03:40:28.653Z,19.67
2022-09-30T03:45:51.226Z,19.24
2022-09-30T03:50:55.050Z,19.22
2022-09-30T03:55:57.493Z,19.47
2022-09-30T04:01:00.028Z,19.56
2022-09-30T04:06:03.334Z,19.80
2022-09-30T04:11:06.418Z,20.05
2022-09-30T04:16:10.195Z,19.98
2022-09-30T04:21:15.313Z,19.55
2022-09-30T04:26:20.190Z,19.35
2022-09-30T04:31:32.864Z,19.29
2022-09-30T04:36:36.392Z,19.36
2022-09-30T04:41:43.296Z,19.39
2022-09-30T04:46:45.749Z,19.45
2022-09-30T04:51:48.281Z,19.41
2022-09-30T04:56:50.886Z,19.31
2022-09-30T05:01:53.652Z,19.50
2022-09-30T05:07:14.951Z,19.40
2022-09-30T05:12:17.497Z,19.27
2022-09-30T05:17:20.123Z,19.89
2022-09-30T05:22:24.827Z,19.76
2022-09-30T05:27:32.075Z,20.09
2022-09-30T05:32:34.801Z,20.07
2022-09-30T05:38:41.681Z,19.89
2022-09-30T05:44:02.165Z,19.85
2022-09-30T05:49:04.702Z,19.93
2022-09-30T05:54:07.409Z,20.46
2022-09-30T05:59:15.509Z,20.11
2022-09-30T06:04:19.764Z,20.44
2022-09-30T06:09:24.660Z,20.19
2022-09-30T06:14:28.916Z,19.88
2022-09-30T06:19:35.808Z,19.69
2022-09-30T06:24:41.189Z,19.87
2022-09-30T06:29:48.944Z,20.18
2022-09-30T06:34:55.814Z,20.32
2022-09-30T06:39:58.373Z,20.39
2022-09-30T06:45:01.233Z,20.84
2022-09-30T06:50:04.396Z,20.95
2022-09-30T06:55:17.226Z,21.37
2022-09-30T07:00:22.655Z,21.03
2022-09-30T07:05:26.548Z,21.33
2022-09-30T07:10:34.835Z,21.42
2022-09-30T07:15:38.232Z,21.73
2022-09-30T07:20:40.696Z,21.67
2022-09-30T07:26:09.252Z,22.87
2022-09-30T07:31:32.588Z,23.06
2022-09-30T07:36:38.098Z,23.40
2022-09-30T07:41:44.331Z,23.17
2022-09-30T07:46:51.889Z,23.55
2022-09-30T07:51:55.908Z,23.57
2022-09-30T07:57:14.658Z,22.81
2022-09-30T08:02:18.732Z,22.58
2022-09-30T08:07:22.472Z,22.45
2022-09-30T08:12:24.880Z,22.33
2022-09-30T08:17:28.008Z,23.14
2022-09-30T08:22:35.485Z,24.56
2022-09-30T08:27:40.157Z,24.23
2022-09-30T08:32:44.271Z,23.79
2022-09-30T08:37:46.963Z,23.20
2022-09-30T08:43:09.288Z,23.56
2022-09-30T08:48:53.621Z,24.16
2022-09-30T08:54:03.052Z,23.79
2022-09-30T08:59:15.869Z,23.78
2022-09-30T09:04:20.820Z,23.53
2022-09-30T09:09:26.348Z,23.65
2022-09-30T09:14:59.802Z,23.30
2022-09-30T09:20:13.508Z,23.55
2022-09-30T09:25:27.062Z,23.50
2022-09-30T09:30:45.038Z,24.22
2022-09-30T09:36:21.564Z,24.16
2022-09-30T09:41:42.389Z,23.73
2022-09-30T09:46:50.229Z,23.91
2022-09-30T09:52:21.565Z,24.24
2022-09-30T09:57:32.481Z,24.52
2022-09-30T10:02:35.121Z,24.64
2022-09-30T10:07:38.483Z,24.67
2022-09-30T10:12:41.983Z,24.53
2022-09-30T10:17:53.830Z,24.48
2022-09-30T10:23:10.560Z,24.08
2022-09-30T10:28:31.692Z,24.28
2022-09-30T10:33:42.532Z,24.49
2022-09-30T10:39:00.007Z,24.42
2022-09-30T10:44:15.771Z,24.18
2022-09-30T10:49:47.105Z,24.26
2022-09-30T10:55:02.284Z,24.01
2022-09-30T11:00:17.451Z,24.27
2022-09-30T11:05:47.249Z,24.09
2022-09-30T11:11:10.629Z,24.11
2022-09-30T11:16:27.375Z,24.07
2022-09-30T11:21:42.866Z,23.94
2022-09-30T11:27:11.944Z,23.92
2022-09-30T11:32:35.808Z,23.71
2022-09-30T11:38:05.779Z,23.78
2022-09-30T11:43:34.808Z,23.19
2022-09-30T11:48:51.004Z,22.66
2022-09-30T11:53:59.378Z,22.26
2022-09-30T11:59:14.072Z,22.25
2022-09-30T12:04:32.250Z,22.23
2022-09-30T12:09:40.865Z,22.06
2022-09-30T12:14:51.853Z,22.35
2022-09-30T12:20:03.092Z,23.08
2022-09-30T12:25:18.324Z,23.12
2022-09-30T12:30:34.293Z,22.87
2022-09-30T12:35:39.469Z,23.23
2022-09-30T12:41:02.775Z,23.18
2022-09-30T12:52:33.920Z,23.12
2022-09-30T12:57:43.604Z,23.06
2022-09-30T13:02:55.793Z,23.13
2022-09-30T13:08:04.950Z,23.14
2022-09-30T13:13:10.260Z,23.30
2022-09-30T13:18:26.918Z,23.67
2022-09-30T13:23:45.985Z,23.83
2022-09-30T13:28:50.738Z,23.93
2022-09-30T13:34:02.115Z,24.05
2022-09-30T13:39:25.331Z,23.96
2022-09-30T13:44:59.654Z,23.68
2022-09-30T13:50:27.860Z,23.94
2022-09-30T13:55:50.109Z,23.98
2022-09-30T14:01:01.670Z,24.03
2022-09-30T14:06:10.457Z,23.82
2022-09-30T14:11:37.468Z,23.71
2022-09-30T14:17:09.074Z,23.73
2022-09-30T14:22:15.539Z,23.84
2022-09-30T14:27:20.024Z,23.88
2022-09-30T14:32:37.481Z,23.62
2022-09-30T14:37:48.909Z,23.79
2022-09-30T14:42:58.302Z,23.59
2022-09-30T14:48:07.410Z,23.14
2022-09-30T14:53:50.199Z,23.56
2022-09-30T14:58:53.130Z,23.55
2022-09-30T15:04:03.569Z,23.52
2022-09-30T15:09:16.173Z,23.27
2022-09-30T15:14:26.671Z,23.23
2022-09-30T15:19:43.222Z,23.24
2022-09-30T15:24:47.866Z,22.95
2022-09-30T15:30:04.134Z,22.68
2022-09-30T15:35:17.177Z,22.81
2022-09-30T15:40:43.951Z,22.63
2022-09-30T15:45:48.700Z,22.68
2022-09-30T15:51:01.659Z,22.57
2022-09-30T15:56:22.360Z,22.63
2022-09-30T16:01:36.034Z,22.50
2022-09-30T16:06:52.818Z,22.57
2022-09-30T16:12:18.340Z,22.36
2022-09-30T16:17:38.793Z,22.28
2022-09-30T16:22:41.548Z,22.46
2022-09-30T16:27:45.368Z,22.36
2022-09-30T16:32:52.076Z,22.34
2022-09-30T16:38:12.410Z,21.99
2022-09-30T16:43:15.084Z,22.08
2022-09-30T16:48:28.154Z,22.21
2022-09-30T16:53:34.167Z,22.28
2022-09-30T16:58:36.677Z,21.96
2022-09-30T17:03:42.009Z,21.66
2022-09-30T17:08:45.536Z,21.83
2022-09-30T17:13:48.046Z,21.75
2022-09-30T17:18:54.332Z,22.00
2022-09-30T17:23:58.078Z,21.65
2022-09-30T17:29:21.242Z,21.30
2022-09-30T17:34:28.106Z,21.82
2022-09-30T17:39:30.660Z,21.59
2022-09-30T17:44:33.451Z,21.29
2022-09-30T17:54:53.358Z,21.44
2022-09-30T17:59:58.966Z,21.44
2022-09-30T18:05:01.697Z,21.29
2022-09-30T18:10:04.680Z,21.26
2022-09-30T18:15:11.660Z,21.30
2022-09-30T18:20:14.802Z,21.45
2022-09-30T18:25:20.830Z,20.93
2022-09-30T18:30:24.427Z,21.03
2022-09-30T18:35:27.352Z,21.23
2022-09-30T18:40:31.842Z,21.26
2022-09-30T18:45:40.879Z,21.22
2022-09-30T18:50:46.690Z,21.14
2022-09-30T18:55:49.325Z,20.66
2022-09-30T19:00:52.026Z,21.10
2022-09-30T19:05:58.960Z,20.93
2022-09-30T19:11:18.263Z,21.02
2022-09-30T19:16:36.578Z,20.97
2022-09-30T19:21:41.373Z,20.76
2022-09-30T19:26:44.056Z,21.30
2022-09-30T19:31:46.780Z,20.99
2022-09-30T19:36:52.807Z,21.04
2022-09-30T19:42:01.700Z,21.20
2022-09-30T19:47:16.707Z,21.00
2022-09-30T19:52:22.304Z,20.94
2022-09-30T19:57:25.640Z,20.93
2022-09-30T20:02:28.348Z,20.80
2022-09-30T20:07:30.984Z,20.77
2022-09-30T20:12:45.439Z,20.78
2022-09-30T20:17:50.312Z,20.72
2022-09-30T20:22:53.855Z,20.79
2022-09-30T20:27:56.460Z,20.90
2022-09-30T20:34:02.812Z,21.12
2022-09-30T20:39:10.785Z,21.05
2022-09-30T20:44:13.785Z,21.37
2022-09-30T20:49:18.248Z,21.44
2022-09-30T20:54:20.983Z,21.75
2022-09-30T20:59:26.310Z,21.86
2022-09-30T21:04:28.948Z,21.94
2022-09-30T21:09:36.672Z,21.85
2022-09-30T21:14:40.249Z,21.94
2022-09-30T21:19:43.501Z,21.99
2022-09-30T21:24:47.943Z,21.95
2022-09-30T21:29:50.500Z,21.87
2022-09-30T21:34:54.377Z,22.18
2022-09-30T21:39:57.821Z,22.31
2022-09-30T21:45:01.287Z,21.97
2022-09-30T21:50:15.554Z,21.79
2022-09-30T21:55:19.084Z,21.87
2022-09-30T22:00:22.284Z,21.74
2022-09-30T22:05:25.023Z,21.41
2022-09-30T22:10:27.656Z,21.21
2022-09-30T22:15:35.014Z,21.42
2022-09-30T22:20:37.652Z,21.08
2022-09-30T22:25:41.812Z,21.30
2022-09-30T22:30:46.181Z,21.18
2022-09-30T22:36:10.305Z,21.33
2022-09-30T22:41:16.449Z,21.06
2022-09-30T22:46:21.932Z,21.48
2022-09-30T22:51:25.643Z,21.35
2022-09-30T22:56:28.264Z,21.56
2022-09-30T23:01:40.479Z,21.21
2022-09-30T23:06:56.410Z,21.10
2022-09-30T23:12:01.985Z,21.05
2022-09-30T23:17:17.071Z,21.10
2022-09-30T23:22:20.011Z,20.90
2022-09-30T23:27:22.321Z,21.33
2022-09-30T23:32:26.763Z,21.29
2022-09-30T23:37:40.960Z,21.38
2022-09-30T23:42:43.395Z,20.84
2022-09-30T23:47:48.625Z,21.19
2022-09-30T23:52:51.743Z,21.28
2022-09-30T23:57:57.630Z,21.30
